createdAt,value
2023-06-25T00:00:52.575Z,93.31
2023-06-25T00:03:20.408Z,93.33
2023-06-25T00:05:48.346Z,93.38
2023-06-25T00:08:15.984Z,93.41
2023-06-25T00:10:43.784Z,93.40
2023-06-25T00:13:11.514Z,93.48
2023-06-25T00:15:39.216Z,93.32
2023-06-25T00:18:07.004Z,93.22
2023-06-25T00:20:35.864Z,93.14
2023-06-25T00:23:06.744Z,92.98
2023-06-25T00:25:35.363Z,93.21
2023-06-25T00:28:03.028Z,93.02
2023-06-25T00:30:30.888Z,93.10
2023-06-25T00:32:58.601Z,93.28
2023-06-25T00:35:28.685Z,93.27
2023-06-25T00:37:58.283Z,93.04
2023-06-25T00:40:26.925Z,92.76
2023-06-25T00:43:00.690Z,92.70
2023-06-25T00:45:28.353Z,92.49
2023-06-25T00:47:56.542Z,92.47
2023-06-25T00:50:26.624Z,92.40
2023-06-25T00:52:54.283Z,92.76
2023-06-25T00:55:22.160Z,93.09
2023-06-25T00:57:49.913Z,92.93
2023-06-25T01:00:21.317Z,92.56
2023-06-25T01:03:05.769Z,92.59
2023-06-25T01:05:47.565Z,92.65
2023-06-25T01:08:16.104Z,92.80
2023-06-25T01:10:43.755Z,92.94
2023-06-25T01:13:11.435Z,93.10
2023-06-25T01:15:39.398Z,93.28
2023-06-25T01:18:08.107Z,93.50
2023-06-25T01:20:39.731Z,93.63
2023-06-25T01:23:07.493Z,93.53
2023-06-25T01:25:37.998Z,93.66
2023-06-25T01:28:06.809Z,93.86
2023-06-25T01:30:34.576Z,93.91
2023-06-25T01:33:02.252Z,94.20
2023-06-25T01:35:30.409Z,94.41
2023-06-25T01:38:01.070Z,94.67
2023-06-25T01:40:28.698Z,94.77
2023-06-25T01:42:57.287Z,94.95
2023-06-25T01:45:24.945Z,95.03
2023-06-25T01:47:52.937Z,94.93
2023-06-25T01:50:20.700Z,94.82
2023-06-25T01:52:49.470Z,94.86
2023-06-25T01:55:17.332Z,94.64
2023-06-25T01:57:45.095Z,94.41
2023-06-25T02:00:14.020Z,94.31
2023-06-25T02:02:45.086Z,94.24
2023-06-25T02:05:13.103Z,94.13
2023-06-25T02:07:40.811Z,94.21
2023-06-25T02:10:09.037Z,94.18
2023-06-25T02:12:37.099Z,94.21
2023-06-25T02:15:05.611Z,94.25
2023-06-25T02:17:33.406Z,94.26
2023-06-25T02:20:01.349Z,94.54
2023-06-25T02:22:28.982Z,94.74
2023-06-25T02:24:56.686Z,94.75
2023-06-25T02:27:24.316Z,94.77
2023-06-25T02:29:51.971Z,94.92
2023-06-25T02:32:19.640Z,95.09
2023-06-25T02:34:48.734Z,95.16
2023-06-25T02:37:16.724Z,95.39
2023-06-25T02:39:44.357Z,95.42
2023-06-25T02:42:12.168Z,95.60
2023-06-25T02:44:39.888Z,95.52
2023-06-25T02:47:07.622Z,95.73
2023-06-25T02:49:35.778Z,95.65
2023-06-25T02:52:05.027Z,95.64
2023-06-25T02:54:32.720Z,95.54
2023-06-25T02:57:00.352Z,95.38
2023-06-25T02:59:27.909Z,95.15
2023-06-25T03:01:55.993Z,94.79
2023-06-25T03:04:23.641Z,94.66
2023-06-25T03:06:51.581Z,94.73
2023-06-25T03:09:19.631Z,94.47
2023-06-25T03:11:47.378Z,94.34
2023-06-25T03:14:29.948Z,94.17
2023-06-25T03:17:03.894Z,94.31
2023-06-25T03:19:31.734Z,94.27
2023-06-25T03:22:00.040Z,94.34
2023-06-25T03:24:28.592Z,94.36
2023-06-25T03:26:56.257Z,94.31
2023-06-25T03:29:23.938Z,94.10
2023-06-25T03:31:51.577Z,94.22
2023-06-25T03:34:21.408Z,94.43
2023-06-25T03:36:49.566Z,94.63
2023-06-25T03:39:17.636Z,94.81
2023-06-25T03:41:45.300Z,94.94
2023-06-25T03:44:13.166Z,94.91
2023-06-25T03:46:41.566Z,95.22
2023-06-25T03:49:09.204Z,95.44
2023-06-25T03:51:37.401Z,95.94
2023-06-25T03:54:05.553Z,95.98
2023-06-25T03:56:33.421Z,95.97
2023-06-25T03:59:01.083Z,95.97
2023-06-25T04:01:28.919Z,95.79
2023-06-25T04:03:58.918Z,95.69
2023-06-25T04:06:26.536Z,95.78
2023-06-25T04:08:54.238Z,95.55
2023-06-25T04:11:21.853Z,95.59
2023-06-25T04:13:49.715Z,95.62
2023-06-25T04:16:17.396Z,95.62
2023-06-25T04:18:45.862Z,95.58
2023-06-25T04:21:13.658Z,95.30
2023-06-25T04:23:42.003Z,95.42
2023-06-25T04:26:09.913Z,95.59
2023-06-25T04:28:37.850Z,95.50
2023-06-25T04:31:05.914Z,95.81
2023-06-25T04:33:34.830Z,95.32
2023-06-25T04:36:02.774Z,95.26
2023-06-25T04:38:30.770Z,95.49
2023-06-25T04:40:58.402Z,95.30
2023-06-25T04:43:26.475Z,95.40
2023-06-25T04:45:55.682Z,95.54
2023-06-25T04:48:23.357Z,95.41
2023-06-25T04:50:51.471Z,95.44
2023-06-25T04:53:19.281Z,95.23
2023-06-25T04:55:46.977Z,95.17
2023-06-25T04:58:14.700Z,95.12
2023-06-25T05:00:42.463Z,94.97
2023-06-25T05:03:10.391Z,94.99
2023-06-25T05:05:38.344Z,95.11
2023-06-25T05:08:06.387Z,94.92
2023-06-25T05:10:34.033Z,94.34
2023-06-25T05:13:02.036Z,94.24
2023-06-25T05:15:29.762Z,94.21
2023-06-25T05:17:57.451Z,94.00
2023-06-25T05:20:25.086Z,93.87
2023-06-25T05:22:52.750Z,93.64
2023-06-25T05:25:20.451Z,93.48
2023-06-25T05:27:48.197Z,93.55
2023-06-25T05:30:16.513Z,93.59
2023-06-25T05:32:44.228Z,93.62
2023-06-25T05:35:11.980Z,93.52
2023-06-25T05:37:39.648Z,93.46
2023-06-25T05:40:08.238Z,93.39
2023-06-25T05:42:35.911Z,92.61
2023-06-25T05:45:04.166Z,92.41
2023-06-25T05:47:31.876Z,92.30
2023-06-25T05:49:59.598Z,92.17
2023-06-25T05:52:27.783Z,91.77
2023-06-25T05:54:55.532Z,91.87
2023-06-25T05:57:23.187Z,91.74
2023-06-25T05:59:50.867Z,91.56
2023-06-25T06:02:18.511Z,91.42
2023-06-25T06:04:46.304Z,91.29
2023-06-25T06:07:13.947Z,91.52
2023-06-25T06:09:41.616Z,91.44
2023-06-25T06:12:09.776Z,91.11
2023-06-25T06:14:39.588Z,90.91
2023-06-25T06:17:07.279Z,90.97
2023-06-25T06:19:34.907Z,91.32
2023-06-25T06:22:02.604Z,90.91
2023-06-25T06:24:30.235Z,90.39
2023-06-25T06:26:59.245Z,89.93
2023-06-25T06:29:27.821Z,89.34
2023-06-25T06:31:55.471Z,89.51
2023-06-25T06:34:23.267Z,89.05
2023-06-25T06:36:51.004Z,88.93
2023-06-25T06:39:18.710Z,88.93
2023-06-25T06:41:46.326Z,88.77
2023-06-25T06:44:16.457Z,89.22
2023-06-25T06:46:44.445Z,89.37
2023-06-25T06:49:12.286Z,89.70
2023-06-25T06:51:42.314Z,90.29
2023-06-25T06:54:10.163Z,90.80
2023-06-25T06:56:38.919Z,91.21
2023-06-25T06:59:07.254Z,91.25
2023-06-25T07:01:35.774Z,91.01
2023-06-25T07:04:03.612Z,91.11
2023-06-25T07:06:31.287Z,90.85
2023-06-25T07:08:59.210Z,90.58
2023-06-25T07:11:26.876Z,90.36
2023-06-25T07:13:54.531Z,90.32
2023-06-25T07:16:22.213Z,90.63
2023-06-25T07:18:49.768Z,90.56
2023-06-25T07:21:17.622Z,89.74
2023-06-25T07:23:45.290Z,89.53
2023-06-25T07:26:13.362Z,89.05
2023-06-25T07:28:41.023Z,88.24
2023-06-25T07:31:08.720Z,88.03
2023-06-25T07:33:37.075Z,88.29
2023-06-25T07:36:05.333Z,88.30
2023-06-25T07:38:33.036Z,88.30
2023-06-25T07:41:00.654Z,88.11
2023-06-25T07:43:29.982Z,87.73
2023-06-25T07:45:57.900Z,88.10
2023-06-25T07:48:25.591Z,88.35
2023-06-25T07:50:53.691Z,88.52
2023-06-25T07:53:21.323Z,88.53
2023-06-25T07:56:01.788Z,88.62
2023-06-25T07:58:31.536Z,88.38
2023-06-25T08:00:59.253Z,87.67
2023-06-25T08:03:27.041Z,87.25
2023-06-25T08:05:54.906Z,86.44
2023-06-25T08:08:22.546Z,85.16
2023-06-25T08:10:53.531Z,85.27
2023-06-25T08:13:22.205Z,84.92
2023-06-25T08:15:49.940Z,84.69
2023-06-25T08:18:17.620Z,84.72
2023-06-25T08:20:45.386Z,84.35
2023-06-25T08:23:13.362Z,83.29
2023-06-25T08:25:41.680Z,82.71
2023-06-25T08:28:09.476Z,82.61
2023-06-25T08:30:37.141Z,82.12
2023-06-25T08:33:04.815Z,81.95
2023-06-25T08:35:32.475Z,81.95
2023-06-25T08:38:00.125Z,82.22
2023-06-25T08:40:28.536Z,81.37
2023-06-25T08:42:56.194Z,80.49
2023-06-25T08:45:23.733Z,80.41
2023-06-25T08:47:57.338Z,80.25
2023-06-25T08:50:25.172Z,80.46
2023-06-25T08:52:52.853Z,80.33
2023-06-25T08:55:20.624Z,79.79
2023-06-25T08:57:48.591Z,79.08
2023-06-25T09:00:18.270Z,79.25
2023-06-25T09:02:46.071Z,79.73
2023-06-25T09:05:15.149Z,80.48
2023-06-25T09:07:46.465Z,80.76
2023-06-25T09:10:14.542Z,80.80
2023-06-25T09:12:45.849Z,80.66
2023-06-25T09:15:13.483Z,80.14
2023-06-25T09:17:41.225Z,79.87
2023-06-25T09:20:09.932Z,80.01
2023-06-25T09:22:58.732Z,79.74
2023-06-25T09:25:30.271Z,79.59
2023-06-25T09:27:59.945Z,79.18
2023-06-25T09:30:27.559Z,78.79
2023-06-25T09:32:56.424Z,78.96
2023-06-25T09:35:26.878Z,78.64
2023-06-25T09:37:54.914Z,78.08
2023-06-25T09:40:22.869Z,77.68
2023-06-25T09:42:53.335Z,77.14
2023-06-25T09:45:21.882Z,75.95
2023-06-25T09:47:50.862Z,76.33
2023-06-25T09:50:21.509Z,75.65
2023-06-25T09:53:01.047Z,75.04
2023-06-25T09:55:29.664Z,74.94
2023-06-25T09:57:57.825Z,74.40
2023-06-25T10:00:26.336Z,74.26
2023-06-25T10:02:54.286Z,73.25
2023-06-25T10:05:22.532Z,72.97
2023-06-25T10:07:50.201Z,73.05
2023-06-25T10:10:25.501Z,72.90
2023-06-25T10:12:53.504Z,72.89
2023-06-25T10:15:39.999Z,73.13
2023-06-25T10:18:08.106Z,73.34
2023-06-25T10:20:37.108Z,73.00
2023-06-25T10:23:04.904Z,73.18
2023-06-25T10:25:32.947Z,72.84
2023-06-25T10:28:05.511Z,73.09
2023-06-25T10:30:40.298Z,73.32
2023-06-25T10:33:08.406Z,73.41
2023-06-25T10:35:43.481Z,73.24
2023-06-25T10:38:11.187Z,73.40
2023-06-25T10:40:40.124Z,73.36
2023-06-25T10:43:07.943Z,73.14
2023-06-25T10:45:35.921Z,73.26
2023-06-25T10:48:12.770Z,73.56
2023-06-25T10:50:40.658Z,74.06
2023-06-25T10:53:13.133Z,73.21
2023-06-25T10:55:44.926Z,73.46
2023-06-25T10:58:15.874Z,72.97
2023-06-25T11:00:43.599Z,72.25
2023-06-25T11:03:12.220Z,71.99
2023-06-25T11:05:44.041Z,72.15
2023-06-25T11:08:11.845Z,71.02
2023-06-25T11:10:39.876Z,70.66
2023-06-25T11:13:11.435Z,70.75
2023-06-25T11:15:41.598Z,71.31
2023-06-25T11:18:09.964Z,71.60
2023-06-25T11:20:41.603Z,71.35
2023-06-25T11:23:12.219Z,70.83
2023-06-25T11:25:40.914Z,71.45
2023-06-25T11:28:13.521Z,71.32
2023-06-25T11:30:45.042Z,70.79
2023-06-25T11:33:17.384Z,70.94
2023-06-25T11:35:51.778Z,70.00
2023-06-25T11:38:30.253Z,69.70
2023-06-25T11:41:01.105Z,70.05
2023-06-25T11:43:29.485Z,71.32
2023-06-25T11:46:01.790Z,72.38
2023-06-25T11:48:30.318Z,72.71
2023-06-25T11:51:07.780Z,72.89
2023-06-25T11:53:35.551Z,73.15
2023-06-25T11:56:03.345Z,73.56
2023-06-25T11:58:31.186Z,73.60
2023-06-25T12:00:58.985Z,74.03
2023-06-25T12:03:26.710Z,74.51
2023-06-25T12:05:54.589Z,74.77
2023-06-25T12:08:22.247Z,75.50
2023-06-25T12:10:50.311Z,75.82
2023-06-25T12:13:17.993Z,76.28
2023-06-25T12:15:45.635Z,75.78
2023-06-25T12:18:13.331Z,74.45
2023-06-25T12:20:43.621Z,74.04
2023-06-25T12:23:11.394Z,72.31
2023-06-25T12:25:40.278Z,71.14
2023-06-25T12:28:08.065Z,70.92
2023-06-25T12:30:35.940Z,70.46
2023-06-25T12:33:03.614Z,69.51
2023-06-25T12:35:31.338Z,69.37
2023-06-25T12:37:59.101Z,69.54
2023-06-25T12:40:26.761Z,69.79
2023-06-25T12:42:56.474Z,70.31
2023-06-25T12:45:24.447Z,70.96
2023-06-25T12:47:52.154Z,72.03
2023-06-25T12:50:19.879Z,72.25
2023-06-25T12:52:47.586Z,72.72
2023-06-25T12:55:15.314Z,72.91
2023-06-25T12:57:43.065Z,72.89
2023-06-25T13:00:17.570Z,72.96
2023-06-25T13:02:48.886Z,72.98
2023-06-25T13:05:16.999Z,73.09
2023-06-25T13:07:44.686Z,73.10
2023-06-25T13:10:12.427Z,72.97
2023-06-25T13:12:40.290Z,72.74
2023-06-25T13:15:08.582Z,72.82
2023-06-25T13:17:36.256Z,72.12
2023-06-25T13:20:04.822Z,72.04
2023-06-25T13:22:32.480Z,72.01
2023-06-25T13:25:00.208Z,70.97
2023-06-25T13:27:27.812Z,70.88
2023-06-25T13:29:55.467Z,70.32
2023-06-25T13:32:23.313Z,70.50
2023-06-25T13:34:51.222Z,70.49
2023-06-25T13:37:19.186Z,70.55
2023-06-25T13:39:46.825Z,70.42
2023-06-25T13:42:14.513Z,72.20
2023-06-25T13:44:42.149Z,73.21
2023-06-25T13:47:09.853Z,74.03
2023-06-25T13:49:37.475Z,74.21
2023-06-25T13:52:06.016Z,74.28
2023-06-25T13:54:33.824Z,74.53
2023-06-25T13:57:01.385Z,74.62
2023-06-25T13:59:29.180Z,74.46
2023-06-25T14:01:56.836Z,74.56
2023-06-25T14:04:24.677Z,74.60
2023-06-25T14:06:52.460Z,74.51
2023-06-25T14:09:20.410Z,74.41
2023-06-25T14:11:48.176Z,74.43
2023-06-25T14:14:15.839Z,74.18
2023-06-25T14:16:45.174Z,73.59
2023-06-25T14:19:13.717Z,73.45
2023-06-25T14:21:41.612Z,73.21
2023-06-25T14:24:09.350Z,73.05
2023-06-25T14:26:37.224Z,73.15
2023-06-25T14:29:11.174Z,72.92
2023-06-25T14:31:40.276Z,72.84
2023-06-25T14:34:09.324Z,72.45
2023-06-25T14:36:37.100Z,72.15
2023-06-25T14:39:07.015Z,72.09
2023-06-25T14:41:35.326Z,72.02
2023-06-25T14:44:03.054Z,71.65
2023-06-25T14:46:30.976Z,71.56
2023-06-25T14:48:58.775Z,71.24
2023-06-25T14:51:26.534Z,71.18
2023-06-25T14:53:54.221Z,71.25
2023-06-25T14:56:21.975Z,70.82
2023-06-25T14:58:49.630Z,70.67
2023-06-25T15:01:17.528Z,70.34
2023-06-25T15:03:45.357Z,70.28
2023-06-25T15:06:23.994Z,69.43
2023-06-25T15:09:00.878Z,68.60
2023-06-25T15:11:28.514Z,68.23
2023-06-25T15:13:59.264Z,67.83
2023-06-25T15:16:27.842Z,67.85
2023-06-25T15:18:55.495Z,68.04
2023-06-25T15:21:23.183Z,68.01
2023-06-25T15:23:51.535Z,68.13
2023-06-25T15:26:19.199Z,67.85
2023-06-25T15:28:50.343Z,67.99
2023-06-25T15:31:18.499Z,67.81
2023-06-25T15:33:46.420Z,67.43
2023-06-25T15:36:14.150Z,67.31
2023-06-25T15:38:41.944Z,67.29
2023-06-25T15:41:10.083Z,67.10
2023-06-25T15:43:37.750Z,66.42
2023-06-25T15:46:05.623Z,66.31
2023-06-25T15:48:33.780Z,66.03
2023-06-25T15:51:01.669Z,65.71
2023-06-25T15:53:29.321Z,65.99
2023-06-25T15:55:57.418Z,66.35
2023-06-25T15:58:24.941Z,66.50
2023-06-25T16:00:52.715Z,66.66
2023-06-25T16:03:20.503Z,67.09
2023-06-25T16:05:48.448Z,67.25
2023-06-25T16:08:16.514Z,67.27
2023-06-25T16:10:44.174Z,67.16
2023-06-25T16:13:11.891Z,67.21
2023-06-25T16:15:40.123Z,66.98
2023-06-25T16:18:08.182Z,66.72
2023-06-25T16:20:35.863Z,66.23
2023-06-25T16:23:03.608Z,66.02
2023-06-25T16:25:31.289Z,65.68
2023-06-25T16:27:58.936Z,65.88
2023-06-25T16:30:26.736Z,66.24
2023-06-25T16:32:56.750Z,66.54
2023-06-25T16:35:24.693Z,66.90
2023-06-25T16:37:52.671Z,67.15
2023-06-25T16:40:20.522Z,67.09
2023-06-25T16:42:48.112Z,67.32
2023-06-25T16:45:16.812Z,67.60
2023-06-25T16:47:44.555Z,67.67
2023-06-25T16:50:12.192Z,67.72
2023-06-25T16:52:39.959Z,67.78
2023-06-25T16:55:08.358Z,67.63
2023-06-25T16:57:36.001Z,67.38
2023-06-25T17:00:04.102Z,67.20
2023-06-25T17:02:31.772Z,67.49
2023-06-25T17:04:59.599Z,67.54
2023-06-25T17:07:27.338Z,67.33
2023-06-25T17:09:55.300Z,67.57
2023-06-25T17:12:23.100Z,67.86
2023-06-25T17:14:50.761Z,67.79
2023-06-25T17:17:18.464Z,67.90
2023-06-25T17:19:46.292Z,67.90
2023-06-25T17:22:14.774Z,67.67
2023-06-25T17:24:42.535Z,67.90
2023-06-25T17:27:10.195Z,67.67
2023-06-25T17:29:38.267Z,67.72
2023-06-25T17:32:06.722Z,67.93
2023-06-25T17:34:34.548Z,68.01
2023-06-25T17:37:02.296Z,67.98
2023-06-25T17:39:31.480Z,67.88
2023-06-25T17:41:59.244Z,68.53
2023-06-25T17:44:27.113Z,69.26
2023-06-25T17:46:54.791Z,69.59
2023-06-25T17:49:22.432Z,69.62
2023-06-25T17:51:50.221Z,69.74
2023-06-25T17:54:18.577Z,69.85
2023-06-25T17:56:47.046Z,70.21
2023-06-25T17:59:16.260Z,70.18
2023-06-25T18:01:44.504Z,70.20
2023-06-25T18:04:12.422Z,70.55
2023-06-25T18:06:40.157Z,70.91
2023-06-25T18:09:07.922Z,71.07
2023-06-25T18:11:35.584Z,71.05
2023-06-25T18:14:03.756Z,70.45
2023-06-25T18:16:31.430Z,70.74
2023-06-25T18:18:59.085Z,70.27
2023-06-25T18:21:27.079Z,69.90
2023-06-25T18:23:54.713Z,69.77
2023-06-25T18:26:22.380Z,69.88
2023-06-25T18:28:50.242Z,70.04
2023-06-25T18:31:18.036Z,70.16
2023-06-25T18:33:45.777Z,70.34
2023-06-25T18:36:13.943Z,70.83
2023-06-25T18:38:41.706Z,70.84
2023-06-25T18:41:09.375Z,70.89
2023-06-25T18:43:38.197Z,70.84
2023-06-25T18:46:05.821Z,71.09
2023-06-25T18:48:33.584Z,71.14
2023-06-25T18:51:01.671Z,71.55
2023-06-25T18:53:29.316Z,71.94
2023-06-25T18:55:57.212Z,72.31
2023-06-25T18:58:24.946Z,72.45
2023-06-25T19:00:52.606Z,72.57
2023-06-25T19:03:20.586Z,72.81
2023-06-25T19:05:48.445Z,73.31
2023-06-25T19:08:16.221Z,73.59
2023-06-25T19:10:45.004Z,74.17
2023-06-25T19:13:12.793Z,74.35
2023-06-25T19:15:40.542Z,74.95
2023-06-25T19:18:08.902Z,75.57
2023-06-25T19:20:37.098Z,75.93
2023-06-25T19:23:27.820Z,75.76
2023-06-25T19:25:53.801Z,75.74
2023-06-25T19:28:21.463Z,75.84
2023-06-25T19:30:49.418Z,75.90
2023-06-25T19:33:17.811Z,76.01
2023-06-25T19:35:45.794Z,76.33
2023-06-25T19:38:13.754Z,76.32
2023-06-25T19:40:41.652Z,76.48
2023-06-25T19:43:09.893Z,76.59
2023-06-25T19:45:38.171Z,76.85
2023-06-25T19:48:06.218Z,77.10
2023-06-25T19:50:34.448Z,77.32
2023-06-25T19:53:02.174Z,77.75
2023-06-25T19:55:29.946Z,77.81
2023-06-25T19:57:58.319Z,78.00
2023-06-25T20:00:26.110Z,77.78
2023-06-25T20:02:53.858Z,78.05
2023-06-25T20:05:21.868Z,78.19
2023-06-25T20:07:50.508Z,78.28
2023-06-25T20:10:18.496Z,78.59
2023-06-25T20:12:49.659Z,78.86
2023-06-25T20:15:19.020Z,78.98
2023-06-25T20:17:47.271Z,79.13
2023-06-25T20:20:15.177Z,79.37
2023-06-25T20:22:42.958Z,78.96
2023-06-25T20:25:11.410Z,78.92
2023-06-25T20:27:39.286Z,79.07
2023-06-25T20:30:07.870Z,79.35
2023-06-25T20:32:35.847Z,79.44
2023-06-25T20:35:04.058Z,79.64
2023-06-25T20:37:31.665Z,79.74
2023-06-25T20:39:59.871Z,79.85
2023-06-25T20:42:27.497Z,79.94
2023-06-25T20:44:55.060Z,80.07
2023-06-25T20:47:23.190Z,80.40
2023-06-25T20:49:51.103Z,80.60
2023-06-25T20:52:18.780Z,80.65
2023-06-25T20:54:46.526Z,80.60
2023-06-25T20:57:14.836Z,80.44
2023-06-25T20:59:42.571Z,80.36
2023-06-25T21:02:10.443Z,80.29
2023-06-25T21:04:38.415Z,80.27
2023-06-25T21:07:06.071Z,80.13
2023-06-25T21:09:34.058Z,80.18
2023-06-25T21:12:01.853Z,80.34
2023-06-25T21:14:29.597Z,80.28
2023-06-25T21:16:57.225Z,80.37
2023-06-25T21:19:24.897Z,80.45
2023-06-25T21:21:52.858Z,80.55
2023-06-25T21:24:20.622Z,80.52
2023-06-25T21:26:48.324Z,80.69
2023-06-25T21:29:16.763Z,80.88
2023-06-25T21:31:44.544Z,81.23
2023-06-25T21:34:12.235Z,81.26
2023-06-25T21:36:40.777Z,81.68
2023-06-25T21:39:08.542Z,82.03
2023-06-25T21:41:36.210Z,82.39
2023-06-25T21:44:03.892Z,82.51
2023-06-25T21:46:31.584Z,82.62
2023-06-25T21:48:59.484Z,82.55
2023-06-25T21:51:27.269Z,82.51
2023-06-25T21:53:55.183Z,82.62
2023-06-25T21:56:23.545Z,82.90
2023-06-25T21:58:51.808Z,83.01
2023-06-25T22:01:19.589Z,83.24
2023-06-25T22:03:48.168Z,82.96
2023-06-25T22:06:16.031Z,82.87
2023-06-25T22:08:44.277Z,83.10
2023-06-25T22:11:11.920Z,83.05
2023-06-25T22:13:39.666Z,83.22
2023-06-25T22:16:07.995Z,83.59
2023-06-25T22:18:39.455Z,83.80
2023-06-25T22:21:09.306Z,84.12
2023-06-25T22:23:37.221Z,84.31
2023-06-25T22:26:05.520Z,84.38
2023-06-25T22:28:33.451Z,84.26
2023-06-25T22:31:01.214Z,84.25
2023-06-25T22:33:28.988Z,84.31
2023-06-25T22:35:56.999Z,84.50
2023-06-25T22:38:24.711Z,84.87
2023-06-25T22:40:52.387Z,84.98
2023-06-25T22:43:21.793Z,84.88
2023-06-25T22:45:49.471Z,84.82
2023-06-25T22:48:17.153Z,84.57
2023-06-25T22:50:45.180Z,84.98
2023-06-25T22:53:12.736Z,85.11
2023-06-25T22:55:40.709Z,84.89
2023-06-25T22:58:08.626Z,85.16
2023-06-25T23:00:36.950Z,85.33
2023-06-25T23:03:05.442Z,85.65
2023-06-25T23:05:33.530Z,85.86
2023-06-25T23:08:01.282Z,85.90
2023-06-25T23:10:28.976Z,85.94
2023-06-25T23:12:59.671Z,86.07
2023-06-25T23:15:27.320Z,86.20
2023-06-25T23:17:56.660Z,86.85
2023-06-25T23:20:25.904Z,87.47
2023-06-25T23:22:54.099Z,87.59
2023-06-25T23:25:29.294Z,87.82
2023-06-25T23:27:58.926Z,88.07
2023-06-25T23:30:28.858Z,88.28
2023-06-25T23:32:56.484Z,88.22
2023-06-25T23:35:24.398Z,88.29
2023-06-25T23:37:51.949Z,88.18
2023-06-25T23:40:19.707Z,88.28
2023-06-25T23:42:47.418Z,88.46
2023-06-25T23:45:15.192Z,88.62
2023-06-25T23:47:42.912Z,88.84
2023-06-25T23:50:10.675Z,88.96
2023-06-25T23:52:38.323Z,89.15
2023-06-25T23:55:06.622Z,88.79
2023-06-25T23:57:34.262Z,88.46
